Current Conditions
Voornamelijk Helder




Pressure
1021.92 (mb) - 30.18 (inHG)
Visibility

10.0 (km) - 6.2 (miles)
   Temperature
7  °C
45°F
0  °C
Dewpoint
61  %
 Humidity
   Wind Speed
16  km/h
9  kts
10  mph
4.5  m/s
   Wind Direction
 120°
East South
East
   Airport Data
EHAM
Location Amsterdam Schiphol 80 km (49.72 mi)
Metar :EHAM 050325Z 12009KT CAVOK 07/00 Q1022 NOSIG
Sun 5th April 04:25 am
   Raw Metar Info
Raw METAR is the most common format in the world for the transmission of observational weather data. It is highly standardized through the International Civil Aviation Organization (ICAO), which allows it to be understood throughout most of the world.
   API Info
Data Provided by
https://www.checkwx.com/weather/EHAM
   © Info
CSS/SVG/PHP scripts were developed by weather34.com for use in the weather34 template © 2015-2020

Guide Info provided by Metar-Wikipedia